Time;durP1;ratioP1;P1;durP2;ratioP2;P2;SDS_P1;SDS_P2;PMS_P1;PMS_P2;Temp;Humidity;BMP_temperature;BMP_pressure;BME280_temperature;BME280_humidity;BME280_pressure;Samples;Min_cycle;Max_cycle;Signal;HPM_P1;HPM_P2
2024/03/07 00:04:46;;;;;;;8.87;3.83;;;8.70;99.90;;;;;;5125057;23;20246;-96
2024/03/07 00:07:13;;;;;;;7.97;3.97;;;8.60;99.90;;;;;;5147195;23;20154;-95
2024/03/07 00:09:53;;;;;;;4.93;3.17;;;8.40;99.90;;;;;;5146899;22;20164;-96
2024/03/07 00:12:16;;;;;;;;;;;;;;;;;;;;;
2024/03/07 00:14:55;;;;;;;8.63;3.83;;;8.20;99.90;;;;;;5144851;23;20155;-95
2024/03/07 00:17:02;;;;;;;6.77;3.80;;;8.30;99.90;;;;;;5121020;23;20148;-95
2024/03/07 00:19:52;;;;;;;7.10;3.53;;;8.40;99.90;;;;;;5146673;23;20525;-95
2024/03/07 00:22:26;;;;;;;10.70;4.07;;;8.40;99.90;;;;;;5121686;23;20157;-95
2024/03/07 00:24:47;;;;;;;;;;;;;;;;;;;;;
2024/03/07 00:26:56;;;;;;;12.60;4.73;;;8.60;99.90;;;;;;5149832;22;20187;-94
2024/03/07 00:32:55;;;;;;;6.83;3.37;;;8.50;99.90;;;;;;5170108;23;20147;-94
2024/03/07 00:36:17;;;;;;;;;;;;;;;;;;;;;
2024/03/07 00:38:50;;;;;;;8.87;3.87;;;8.10;99.90;;;;;;5143181;23;20195;-96
2024/03/07 00:41:44;;;;;;;7.63;4.37;;;8.40;99.90;;;;;;5148569;23;20147;-94
2024/03/07 00:47:43;;;;;;;11.67;4.43;;;8.90;99.90;;;;;;5089619;23;20157;-94
2024/03/07 00:50:04;;;;;;;10.23;4.63;;;8.60;99.90;;;;;;5168295;23;20204;-93
2024/03/07 00:52:41;;;;;;;10.57;4.30;;;8.30;99.90;;;;;;5145600;23;20150;-93
2024/03/07 00:55:16;;;;;;;13.87;5.23;;;8.10;99.90;;;;;;5118433;23;20210;-94
2024/03/07 00:57:45;;;;;;;9.73;3.87;;;7.90;99.90;;;;;;5116088;23;20606;-93
2024/03/07 01:00:13;;;;;;;13.00;5.30;;;7.80;99.90;;;;;;5143278;23;20499;-94
2024/03/07 01:02:20;;;;;;;11.13;4.83;;;7.70;99.90;;;;;;5143455;23;20202;-93
2024/03/07 01:05:37;;;;;;;;;;;;;;;;;;;;;
2024/03/07 01:10:23;;;;;;;12.87;6.00;;;7.40;99.90;;;;;;5124555;23;20254;-93
2024/03/07 01:12:35;;;;;;;14.07;6.83;;;7.30;99.90;;;;;;5141137;23;20203;-94
2024/03/07 01:14:57;;;;;;;15.73;6.67;;;7.30;99.90;;;;;;5119360;23;20283;-93
2024/03/07 01:17:27;;;;;;;17.70;6.33;;;7.20;99.90;;;;;;5142532;23;20210;-93
2024/03/07 01:20:01;;;;;;;16.30;5.90;;;7.10;99.90;;;;;;5118134;23;20195;-93
2024/03/07 01:22:33;;;;;;;12.13;6.10;;;7.10;99.90;;;;;;5165429;23;20147;-93
2024/03/07 01:25:00;;;;;;;22.37;7.67;;;7.00;99.90;;;;;;5118429;23;20153;-93
2024/03/07 01:27:34;;;;;;;;;;;;;;;;;;;;;
2024/03/07 01:30:32;;;;;;;;;;;;;;;;;;;;;
2024/03/07 01:33:31;;;;;;;18.57;7.20;;;7.10;99.90;;;;;;5161968;23;20159;-94
2024/03/07 01:36:27;;;;;;;16.30;6.17;;;7.30;99.90;;;;;;5118691;23;20155;-94
2024/03/07 01:39:17;;;;;;;14.90;6.83;;;7.40;99.90;;;;;;5118088;23;20187;-95
2024/03/07 01:41:51;;;;;;;;;;;;;;;;;;;;;
2024/03/07 01:44:37;;;;;;;18.20;6.67;;;7.60;99.90;;;;;;5186254;23;20167;-93
2024/03/07 01:47:30;;;;;;;14.70;5.93;;;7.50;99.90;;;;;;5120955;23;20152;-93
2024/03/07 01:50:00;;;;;;;15.73;7.63;;;7.30;99.90;;;;;;5116536;23;20500;-94
2024/03/07 01:52:09;;;;;;;22.33;7.93;;;7.20;99.90;;;;;;5117862;23;20531;-93
2024/03/07 01:54:26;;;;;;;15.30;6.90;;;7.10;99.90;;;;;;5114347;23;20191;-93
2024/03/07 01:56:54;;;;;;;18.30;7.70;;;7.10;99.90;;;;;;5168842;23;20145;-94
2024/03/07 01:59:32;;;;;;;18.43;8.47;;;7.10;99.90;;;;;;5122365;23;20204;-95
2024/03/07 02:01:46;;;;;;;21.07;8.77;;;7.10;99.90;;;;;;5116945;23;20248;-94
2024/03/07 02:04:20;;;;;;;19.37;8.30;;;7.10;99.90;;;;;;5120000;23;20231;-93
2024/03/07 02:06:41;;;;;;;22.43;8.40;;;7.00;99.90;;;;;;5116021;23;20234;-94
2024/03/07 02:09:08;;;;;;;;;;;;;;;;;;;;;
2024/03/07 02:12:08;;;;;;;21.67;8.03;;;7.00;99.90;;;;;;5142209;23;20178;-93
2024/03/07 02:17:43;;;;;;;18.77;7.30;;;7.10;99.90;;;;;;5129693;23;20152;-94
2024/03/07 02:19:58;;;;;;;24.97;9.43;;;7.10;99.90;;;;;;5090424;23;20251;-94
2024/03/07 02:22:49;;;;;;;22.73;9.27;;;7.10;99.90;;;;;;5123582;23;20154;-93
2024/03/07 02:25:23;;;;;;;24.57;10.47;;;7.20;99.90;;;;;;5117646;23;20159;-94
2024/03/07 02:27:45;;;;;;;24.57;9.83;;;7.10;99.90;;;;;;5091280;23;20165;-93
2024/03/07 02:30:29;;;;;;;26.10;10.93;;;7.00;99.90;;;;;;5096177;23;20227;-94
2024/03/07 02:32:39;;;;;;;27.17;9.37;;;7.00;99.90;;;;;;5118371;23;20149;-93
2024/03/07 02:34:50;;;;;;;25.10;9.97;;;6.80;99.90;;;;;;5118548;23;20152;-94
2024/03/07 02:36:54;;;;;;;29.97;12.60;;;6.70;99.90;;;;;;5118083;23;20734;-93
2024/03/07 02:38:59;;;;;;;27.37;10.20;;;6.60;99.90;;;;;;5142122;23;20195;-95
2024/03/07 02:41:16;;;;;;;;;;;;;;;;;;;;;
2024/03/07 02:43:31;;;;;;;31.10;11.47;;;6.50;99.90;;;;;;5142956;23;20152;-94
2024/03/07 02:46:13;;;;;;;27.43;9.70;;;6.50;99.90;;;;;;5163814;23;20611;-92
2024/03/07 02:48:30;;;;;;;23.23;10.27;;;6.60;99.90;;;;;;5118582;23;20152;-94
2024/03/07 02:50:54;;;;;;;23.57;11.13;;;6.60;99.90;;;;;;5117975;23;20160;-93
2024/03/07 02:53:20;;;;;;;;;;;;;;;;;;;;;
2024/03/07 02:55:36;;;;;;;24.90;10.97;;;6.60;99.90;;;;;;5142792;23;20159;-94
2024/03/07 02:58:24;;;;;;;25.43;10.30;;;6.50;99.90;;;;;;5120298;23;20156;-95
2024/03/07 03:00:31;;;;;;;33.13;11.60;;;6.50;99.90;;;;;;5118177;23;20156;-93
2024/03/07 03:02:58;;;;;;;31.13;12.03;;;6.50;99.90;;;;;;5142926;23;20197;-94
2024/03/07 03:05:07;;;;;;;27.87;12.07;;;6.40;99.90;;;;;;5118319;23;20163;-95
2024/03/07 03:07:13;;;;;;;33.73;11.50;;;6.40;99.90;;;;;;5142422;23;20148;-94
2024/03/07 03:09:17;;;;;;;29.13;11.97;;;6.30;99.90;;;;;;5117311;23;20186;-94
2024/03/07 03:11:27;;;;;;;34.93;13.73;;;6.20;99.90;;;;;;5142897;23;20198;-93
2024/03/07 03:13:32;;;;;;;34.40;11.47;;;6.10;99.90;;;;;;5118857;23;20243;-93
2024/03/07 03:15:45;;;;;;;33.40;11.33;;;6.00;99.90;;;;;;5142779;23;20151;-96
2024/03/07 03:17:50;;;;;;;30.57;12.40;;;6.00;99.90;;;;;;5117327;23;20160;-95
2024/03/07 03:20:18;;;;;;;30.93;12.07;;;6.00;99.90;;;;;;5120197;23;20619;-93
2024/03/07 03:22:19;;;;;;;41.63;12.30;;;6.10;99.90;;;;;;5119758;23;20148;-92
2024/03/07 03:24:31;;;;;;;31.13;10.90;;;6.10;99.90;;;;;;5119642;23;20152;-94
2024/03/07 03:26:40;;;;;;;35.63;11.47;;;6.20;99.90;;;;;;5117800;23;20167;-94
2024/03/07 03:28:54;;;;;;;32.63;12.90;;;6.20;99.90;;;;;;5120027;23;20670;-95
2024/03/07 03:31:12;;;;;;;32.23;12.03;;;6.20;99.90;;;;;;5143811;23;20238;-93
2024/03/07 03:33:30;;;;;;;36.90;13.30;;;6.20;99.90;;;;;;5121402;23;20155;-95
2024/03/07 03:35:41;;;;;;;37.87;13.27;;;6.20;99.90;;;;;;5116142;23;20163;-96
2024/03/07 03:37:53;;;;;;;40.23;13.77;;;6.20;99.90;;;;;;5144233;23;20182;-94
2024/03/07 03:40:04;;;;;;;31.90;12.43;;;6.20;99.90;;;;;;5144575;23;20599;-94
2024/03/07 03:42:15;;;;;;;39.93;13.27;;;6.20;99.90;;;;;;5121184;23;20619;-94
2024/03/07 03:44:23;;;;;;;47.80;14.37;;;6.10;99.90;;;;;;5126361;23;20216;-93
2024/03/07 03:46:31;;;;;;;35.37;12.63;;;6.10;99.90;;;;;;5137580;23;20160;-93
2024/03/07 03:48:43;;;;;;;37.37;13.83;;;6.10;99.90;;;;;;5120035;23;20156;-94
2024/03/07 03:50:54;;;;;;;41.47;14.10;;;6.00;99.90;;;;;;5144623;23;20595;-93
2024/03/07 03:53:02;;;;;;;33.80;12.07;;;6.00;99.90;;;;;;5119239;23;20190;-95
2024/03/07 03:55:09;;;;;;;34.80;13.43;;;5.90;99.90;;;;;;5119355;23;20187;-93
2024/03/07 03:57:29;;;;;;;41.07;14.10;;;5.90;99.90;;;;;;5120533;23;20185;-93
2024/03/07 03:59:38;;;;;;;36.07;12.20;;;6.00;99.90;;;;;;5118902;23;20196;-94
2024/03/07 04:01:41;;;;;;;31.17;13.57;;;6.10;99.90;;;;;;5119609;23;20153;-95
2024/03/07 04:04:27;;;;;;;;;;;;;;;;;;;;;
2024/03/07 04:06:36;;;;;;;47.33;14.37;;;6.20;99.90;;;;;;5143910;23;20590;-94
2024/03/07 04:08:53;;;;;;;37.63;13.80;;;6.20;99.90;;;;;;5146586;23;20168;-93
2024/03/07 04:10:55;;;;;;;29.00;12.63;;;6.20;99.90;;;;;;5119637;23;20670;-93
2024/03/07 04:12:59;;;;;;;41.97;14.17;;;6.10;99.90;;;;;;5119429;23;20163;-94
2024/03/07 04:15:04;;;;;;;37.90;13.93;;;6.10;99.90;;;;;;5120232;23;20152;-94
2024/03/07 04:17:07;;;;;;;39.07;14.23;;;5.90;99.90;;;;;;5144311;23;20156;-96
2024/03/07 04:19:11;;;;;;;37.13;13.90;;;5.80;99.90;;;;;;5168915;23;20660;-93
2024/03/07 04:21:12;;;;;;;38.33;15.17;;;5.70;99.90;;;;;;5119577;23;20148;-93
2024/03/07 04:23:16;;;;;;;44.03;14.97;;;5.60;99.90;;;;;;5117911;23;20460;-93
2024/03/07 04:25:20;;;;;;;53.93;16.87;;;5.60;99.90;;;;;;5119714;23;20283;-93
2024/03/07 04:27:21;;;;;;;54.67;15.37;;;5.60;99.90;;;;;;5143812;23;20458;-93
2024/03/07 04:29:22;;;;;;;39.27;15.53;;;5.60;99.90;;;;;;5144173;23;20191;-94
2024/03/07 04:31:26;;;;;;;40.30;15.40;;;5.60;99.90;;;;;;5143551;23;20595;-95
2024/03/07 04:33:27;;;;;;;48.33;15.73;;;5.50;99.90;;;;;;5144193;23;20162;-93
2024/03/07 04:35:28;;;;;;;45.57;16.03;;;5.50;99.90;;;;;;5118856;23;20156;-94
2024/03/07 04:37:29;;;;;;;51.90;15.70;;;5.50;99.90;;;;;;5143718;23;20205;-94
2024/03/07 04:39:33;;;;;;;48.97;17.23;;;5.40;99.90;;;;;;5119060;23;20192;-95
2024/03/07 04:41:36;;;;;;;55.70;18.10;;;5.40;99.90;;;;;;5144317;23;20159;-92
2024/03/07 04:43:37;;;;;;;41.13;16.97;;;5.30;99.90;;;;;;5119781;23;20152;-93
2024/03/07 04:45:38;;;;;;;52.43;17.87;;;5.20;99.90;;;;;;5119366;23;20244;-93
2024/03/07 04:47:44;;;;;;;44.70;17.33;;;5.20;99.90;;;;;;5144548;23;20156;-94
2024/03/07 04:49:45;;;;;;;55.30;16.17;;;5.20;99.90;;;;;;5119392;23;20172;-94
2024/03/07 04:51:49;;;;;;;48.47;16.80;;;5.10;99.90;;;;;;5119351;23;20156;-94
2024/03/07 04:53:49;;;;;;;52.70;16.70;;;5.10;99.90;;;;;;5144287;23;20230;-93
2024/03/07 04:55:50;;;;;;;55.33;16.97;;;5.10;99.90;;;;;;5119545;23;20575;-93
2024/03/07 04:57:51;;;;;;;51.93;17.70;;;5.10;99.90;;;;;;5118969;23;20148;-94
2024/03/07 04:59:53;;;;;;;58.77;18.60;;;5.20;99.90;;;;;;5119781;23;20654;-94
2024/03/07 05:01:54;;;;;;;49.17;16.77;;;5.20;99.90;;;;;;5143691;23;20147;-93
2024/03/07 05:03:55;;;;;;;50.80;18.13;;;5.20;99.90;;;;;;5169208;23;20249;-94
2024/03/07 05:06:00;;;;;;;53.07;16.67;;;5.10;99.90;;;;;;5119094;23;20155;-93
2024/03/07 05:08:04;;;;;;;52.47;17.80;;;5.10;99.90;;;;;;5118742;23;20488;-94
2024/03/07 05:10:06;;;;;;;57.77;19.17;;;5.20;99.90;;;;;;5119116;23;20296;-93
2024/03/07 05:12:07;;;;;;;64.47;17.87;;;5.20;99.90;;;;;;5119030;23;20210;-93
2024/03/07 05:14:08;;;;;;;54.27;17.77;;;5.20;99.90;;;;;;5118776;23;20227;-94
2024/03/07 05:16:09;;;;;;;52.90;18.07;;;5.20;99.90;;;;;;5143917;23;20155;-92
2024/03/07 05:18:14;;;;;;;54.20;16.53;;;5.10;99.90;;;;;;5119554;23;20184;-93
2024/03/07 05:20:18;;;;;;;54.67;17.80;;;5.10;99.90;;;;;;5119056;23;20184;-94
2024/03/07 05:22:22;;;;;;;48.63;16.57;;;5.10;99.90;;;;;;5119206;23;20152;-95
2024/03/07 05:24:23;;;;;;;51.17;17.33;;;5.10;99.90;;;;;;5119123;23;20152;-92
2024/03/07 05:26:24;;;;;;;60.77;19.17;;;5.00;99.90;;;;;;5119322;23;20500;-93
2024/03/07 05:28:25;;;;;;;44.77;15.70;;;5.10;99.90;;;;;;5118385;23;20191;-92
2024/03/07 05:30:29;;;;;;;59.37;18.33;;;5.00;99.90;;;;;;5118848;23;20147;-94
2024/03/07 05:32:31;;;;;;;50.67;16.70;;;5.00;99.90;;;;;;5118856;23;20211;-94
2024/03/07 05:34:33;;;;;;;66.57;20.03;;;5.00;99.90;;;;;;5119386;23;20542;-93
2024/03/07 05:36:43;;;;;;;51.33;17.17;;;5.00;99.90;;;;;;5118776;23;20215;-93
2024/03/07 05:38:45;;;;;;;50.37;16.20;;;5.00;99.90;;;;;;5118575;23;20191;-93
2024/03/07 05:40:46;;;;;;;62.30;18.57;;;5.00;99.90;;;;;;5119042;23;20156;-94
2024/03/07 05:42:53;;;;;;;70.60;20.07;;;5.00;99.90;;;;;;5118853;23;20187;-93
2024/03/07 05:44:54;;;;;;;61.00;17.47;;;5.00;99.90;;;;;;5128259;23;20140;-93
2024/03/07 05:46:57;;;;;;;64.80;18.20;;;5.00;99.90;;;;;;5135185;23;20156;-95
2024/03/07 05:48:59;;;;;;;45.23;16.10;;;5.10;99.90;;;;;;5143609;23;20163;-94
2024/03/07 05:51:03;;;;;;;70.40;18.20;;;5.10;99.90;;;;;;5145382;23;20706;-94
2024/03/07 05:53:09;;;;;;;65.77;19.37;;;5.10;99.90;;;;;;5120916;23;20194;-94
2024/03/07 05:55:18;;;;;;;63.07;19.13;;;5.30;99.90;;;;;;5144891;23;20210;-93
2024/03/07 05:57:19;;;;;;;57.10;19.70;;;5.30;99.90;;;;;;5143748;23;20151;-93
2024/03/07 05:59:21;;;;;;;58.50;17.87;;;5.30;99.90;;;;;;5118464;23;20188;-94
2024/03/07 06:01:23;;;;;;;45.63;16.40;;;5.40;99.90;;;;;;5143927;23;20160;-94
2024/03/07 06:03:28;;;;;;;62.90;18.33;;;5.40;99.90;;;;;;5118930;23;20239;-94
2024/03/07 06:05:31;;;;;;;53.50;18.43;;;5.20;99.90;;;;;;5118453;23;20479;-93
2024/03/07 06:07:32;;;;;;;79.43;17.53;;;5.40;99.90;;;;;;5143429;23;20144;-95
2024/03/07 06:09:33;;;;;;;57.70;18.40;;;5.40;99.90;;;;;;5142614;23;20638;-93
2024/03/07 06:11:41;;;;;;;52.10;17.07;;;5.40;99.90;;;;;;5118784;23;20175;-93
2024/03/07 06:13:50;;;;;;;61.03;19.87;;;5.50;99.90;;;;;;5118130;23;20614;-94
2024/03/07 06:15:51;;;;;;;56.07;16.60;;;5.50;99.90;;;;;;5168201;23;20151;-92
2024/03/07 06:17:54;;;;;;;45.37;16.73;;;5.50;99.90;;;;;;5118388;23;20260;-92
2024/03/07 06:19:55;;;;;;;52.77;17.47;;;5.50;99.90;;;;;;5118126;23;20168;-95
2024/03/07 06:21:58;;;;;;;66.97;16.73;;;5.50;99.90;;;;;;5118118;23;20156;-93
2024/03/07 06:24:03;;;;;;;64.37;17.40;;;5.40;99.90;;;;;;5118236;23;20502;-95
2024/03/07 06:26:12;;;;;;;59.80;17.10;;;5.60;99.90;;;;;;5119046;23;20152;-94
2024/03/07 06:28:13;;;;;;;60.80;16.40;;;5.60;99.90;;;;;;5142791;23;20167;-94
2024/03/07 06:30:18;;;;;;;50.97;18.00;;;5.60;99.90;;;;;;5118399;23;20627;-93
2024/03/07 06:32:19;;;;;;;56.80;16.73;;;5.70;99.90;;;;;;5119016;23;20156;-92
2024/03/07 06:34:20;;;;;;;57.90;17.97;;;5.70;99.90;;;;;;5143378;23;20624;-95
2024/03/07 06:36:21;;;;;;;88.30;18.53;;;5.60;99.90;;;;;;5118542;23;20156;-92
2024/03/07 06:38:22;;;;;;;61.40;17.53;;;5.60;99.90;;;;;;5118245;23;20661;-94
2024/03/07 06:40:26;;;;;;;57.93;18.80;;;5.60;99.90;;;;;;5118171;23;20597;-92
2024/03/07 06:42:29;;;;;;;53.27;16.10;;;5.80;99.90;;;;;;5118337;23;20156;-92
2024/03/07 06:44:32;;;;;;;64.27;18.40;;;5.80;99.90;;;;;;5118524;23;20148;-93
2024/03/07 06:46:36;;;;;;;57.40;19.37;;;5.50;99.90;;;;;;5143046;23;20219;-94
2024/03/07 06:48:40;;;;;;;64.73;16.87;;;5.50;99.90;;;;;;5118527;23;20148;-95
2024/03/07 06:50:40;;;;;;;54.10;16.17;;;5.60;99.90;;;;;;5143897;23;20156;-95
2024/03/07 06:52:41;;;;;;;43.53;15.23;;;5.70;99.90;;;;;;5143504;23;20236;-95
2024/03/07 06:54:45;;;;;;;63.53;17.37;;;5.80;99.90;;;;;;5144806;23;20199;-95
2024/03/07 06:56:46;;;;;;;58.07;17.93;;;5.50;99.90;;;;;;5120240;23;20184;-93
2024/03/07 06:58:49;;;;;;;48.73;16.87;;;5.40;99.90;;;;;;5145002;23;20234;-96
2024/03/07 07:00:58;;;;;;;53.10;17.80;;;5.30;99.90;;;;;;5120291;23;20168;-95
2024/03/07 07:03:40;;;;;;;;;;;;;;;;;;;;;
2024/03/07 07:07:13;;;;;;;;;;;;;;;;;;;;;
2024/03/07 07:28:56;;;;;;;;;;;;;;;;;;;;;
2024/03/07 07:34:55;;;;;;;57.00;16.17;;;5.40;99.90;;;;;;4909171;24;20314;-93
2024/03/07 07:48:46;;;;;;;30.00;11.80;;;6.40;99.90;;;;;;4865321;24;20530;-94
2024/03/07 08:05:19;;;;;;;;;;;;;;;;;;;;;
2024/03/07 08:11:41;;;;;;;51.77;15.43;;;5.90;99.90;;;;;;5212875;22;20220;-94
2024/03/07 08:15:05;;;;;;;;;;;;;;;;;;;;;
2024/03/07 08:18:28;;;;;;;59.90;17.00;;;6.00;99.90;;;;;;5123737;22;20351;-95
2024/03/07 08:21:01;;;;;;;;;;;;;;;;;;;;;
2024/03/07 08:34:45;;;;;;;61.07;17.67;;;6.40;99.90;;;;;;5043082;23;20667;-95
2024/03/07 09:18:47;;;;;;;61.30;15.77;;;7.40;99.90;;;;;;5201738;22;20235;-95
2024/03/07 09:27:51;;;;;;;54.70;16.47;;;7.60;99.90;;;;;;4976014;23;20598;-93
2024/03/07 09:36:12;;;;;;;;;;;;;;;;;;;;;
2024/03/07 09:41:31;;;;;;;;;;;;;;;;;;;;;
2024/03/07 10:17:46;;;;;;;;;;;;;;;;;;;;;
2024/03/07 10:29:47;;;;;;;;;;;;;;;;;;;;;
2024/03/07 10:32:58;;;;;;;31.02;11.75;;;8.80;99.90;;;;;;5123006;23;20219;-93
2024/03/07 10:38:53;;;;;;;;;;;;;;;;;;;;;
2024/03/07 10:41:48;;;;;;;33.20;12.87;;;9.20;99.90;;;;;;5104567;23;20502;-94
2024/03/07 10:52:21;;;;;;;;;;;;;;;;;;;;;
2024/03/07 11:07:01;;;;;;;;;;;;;;;;;;;;;
2024/03/07 11:13:21;;;;;;;36.08;12.50;;;10.20;99.90;;;;;;4838190;24;20206;-93
2024/03/07 11:16:37;;;;;;;27.17;11.00;;;10.00;99.90;;;;;;4869918;24;20173;-94
2024/03/07 11:19:53;;;;;;;30.85;12.13;;;10.10;99.90;;;;;;4894867;24;20226;-93
2024/03/07 11:24:35;;;;;;;;;;;;;;;;;;;;;
2024/03/07 11:27:32;;;;;;;;;;;;;;;;;;;;;
2024/03/07 11:30:51;;;;;;;20.25;7.53;;;10.20;99.90;;;;;;5210659;22;20478;-94
2024/03/07 11:33:41;;;;;;;;;;;;;;;;;;;;;
2024/03/07 11:40:01;;;;;;;26.23;10.20;;;10.80;99.90;;;;;;4998973;23;20194;-96
2024/03/07 11:42:37;;;;;;;27.90;11.32;;;10.80;99.90;;;;;;5170083;23;20218;-94
2024/03/07 11:48:48;;;;;;;;;;;;;;;;;;;;;
2024/03/07 11:51:31;;;;;;;33.53;11.10;;;10.60;99.90;;;;;;5102006;23;20205;-95
2024/03/07 11:57:26;;;;;;;21.63;10.23;;;10.60;99.90;;;;;;5201619;22;20212;-94
2024/03/07 12:03:06;;;;;;;19.08;7.38;;;10.70;99.90;;;;;;4976018;23;20156;-95
2024/03/07 12:06:17;;;;;;;26.33;11.48;;;10.60;99.90;;;;;;5078013;23;20532;-93
2024/03/07 12:09:15;;;;;;;15.85;6.50;;;10.90;99.90;;;;;;5050897;23;20158;-94
2024/03/07 12:11:52;;;;;;;20.63;8.43;;;10.70;99.90;;;;;;5066638;23;20157;-94
2024/03/07 12:24:07;;;;;;;;;;;;;;;;;;;;;
2024/03/07 12:27:33;;;;;;;24.55;8.25;;;11.20;99.90;;;;;;5115806;23;20225;-94
2024/03/07 12:30:39;;;;;;;23.15;9.18;;;11.30;99.90;;;;;;5109042;23;20232;-94
2024/03/07 12:33:51;;;;;;;12.50;6.65;;;11.40;99.90;;;;;;5148575;23;20163;-94
2024/03/07 12:46:33;;;;;;;14.80;6.32;;;11.50;99.90;;;;;;5046611;23;20182;-95
2024/03/07 12:49:17;;;;;;;17.50;7.88;;;11.70;99.90;;;;;;5022465;23;20226;-94
2024/03/07 13:02:46;;;;;;;;;;;;;;;;;;;;;
2024/03/07 13:09:26;;;;;;;18.70;7.75;;;12.00;99.90;;;;;;4977069;23;20155;-94
2024/03/07 13:23:10;;;;;;;15.88;7.88;;;11.50;99.90;;;;;;4965850;23;20261;-94
2024/03/07 13:29:06;;;;;;;16.25;7.88;;;11.10;99.90;;;;;;5015295;23;20185;-94
2024/03/07 13:34:50;;;;;;;22.15;9.65;;;10.80;99.90;;;;;;5093955;23;20200;-95
2024/03/07 13:37:46;;;;;;;;;;;;;;;;;;;;;
2024/03/07 13:41:33;;;;;;;;;;;;;;;;;;;;;
2024/03/07 13:44:29;;;;;;;14.68;6.72;;;11.00;99.90;;;;;;5023765;23;20491;-95
2024/03/07 13:46:54;;;;;;;16.67;6.00;;;11.20;99.90;;;;;;4998604;23;20159;-93
2024/03/07 13:57:01;;;;;;;12.57;5.88;;;11.30;99.90;;;;;;4932259;24;20209;-93
2024/03/07 14:03:50;;;;;;;19.80;8.90;;;11.60;99.90;;;;;;4904203;24;20180;-95
2024/03/07 14:10:30;;;;;;;15.93;7.57;;;11.20;99.90;;;;;;4954010;24;20218;-96
2024/03/07 14:13:17;;;;;;;17.27;9.43;;;11.50;99.90;;;;;;4929070;23;20906;-94
2024/03/07 14:26:53;;;;;;;16.27;6.90;;;11.30;99.90;;;;;;4930521;24;20673;-93
2024/03/07 14:41:14;;;;;;;14.85;6.57;;;11.10;99.90;;;;;;4977479;23;20195;-93
2024/03/07 17:03:38;;;;;;;;;;;;;;;;;;;;;
2024/03/07 17:17:33;;;;;;;15.40;5.47;;;10.00;99.90;;;;;;4825085;24;20282;-93
2024/03/07 17:35:22;;;;;;;16.35;6.38;;;10.20;99.90;;;;;;5071511;23;20184;-95
2024/03/07 17:37:23;;;;;;;11.40;5.28;;;10.20;99.90;;;;;;5016091;23;20181;-93
2024/03/07 17:39:24;;;;;;;15.65;4.70;;;10.30;99.90;;;;;;5137303;23;20192;-92
2024/03/07 17:41:25;;;;;;;13.38;6.38;;;9.90;99.90;;;;;;5143730;23;20610;-91
2024/03/07 17:43:26;;;;;;;11.70;5.25;;;9.70;99.90;;;;;;5144843;22;20167;-95
2024/03/07 17:45:28;;;;;;;13.93;5.47;;;9.60;99.90;;;;;;5144879;23;20151;-90
2024/03/07 17:47:29;;;;;;;10.98;5.60;;;9.60;99.90;;;;;;5169330;23;20142;-92
2024/03/07 17:49:32;;;;;;;11.90;5.53;;;9.50;99.90;;;;;;5143550;23;20653;-91
2024/03/07 17:51:33;;;;;;;19.95;6.57;;;9.60;99.90;;;;;;5168580;22;20143;-91
2024/03/07 17:53:34;;;;;;;10.48;5.00;;;9.80;99.90;;;;;;5168914;23;20161;-92
2024/03/07 17:55:35;;;;;;;19.88;5.88;;;9.60;99.90;;;;;;5143975;23;20601;-94
2024/03/07 17:57:36;;;;;;;12.75;5.38;;;9.70;99.90;;;;;;5169061;23;20189;-94
2024/03/07 17:59:37;;;;;;;13.43;5.30;;;9.50;99.90;;;;;;5168802;23;20223;-95
2024/03/07 18:01:38;;;;;;;9.07;4.25;;;9.40;99.90;;;;;;5144215;23;20151;-95
2024/03/07 18:03:39;;;;;;;12.77;4.90;;;9.30;99.90;;;;;;5143789;23;20587;-93
2024/03/07 18:05:41;;;;;;;12.13;4.78;;;9.20;99.90;;;;;;5142657;23;20159;-92
2024/03/07 18:07:43;;;;;;;13.30;5.15;;;9.20;99.90;;;;;;5142132;23;20171;-95
2024/03/07 18:09:44;;;;;;;10.90;4.50;;;9.20;99.90;;;;;;5141928;23;20170;-94
2024/03/07 18:11:45;;;;;;;12.25;5.10;;;9.30;99.90;;;;;;5141988;23;20147;-90
2024/03/07 18:13:46;;;;;;;10.95;5.05;;;9.50;99.90;;;;;;5167585;23;20158;-92
2024/03/07 18:15:48;;;;;;;13.90;4.35;;;9.40;99.90;;;;;;5142455;23;20230;-95
2024/03/07 18:17:55;;;;;;;9.02;4.43;;;9.50;99.90;;;;;;5142782;23;20162;-92
2024/03/07 18:19:57;;;;;;;16.40;4.47;;;9.40;99.90;;;;;;5142843;23;20195;-95
2024/03/07 18:21:58;;;;;;;9.43;3.72;;;9.20;99.90;;;;;;5142502;23;20179;-92
2024/03/07 18:23:59;;;;;;;6.80;3.60;;;9.20;99.90;;;;;;5145791;23;20196;-94
2024/03/07 18:26:06;;;;;;;9.27;4.05;;;9.10;99.90;;;;;;5142717;23;20482;-91
2024/03/07 18:28:07;;;;;;;10.00;4.53;;;9.00;99.90;;;;;;5058063;22;2559800;-91
2024/03/07 18:30:11;;;;;;;10.15;4.30;;;9.00;99.90;;;;;;5168598;22;20625;-93
2024/03/07 18:32:12;;;;;;;9.32;4.13;;;9.00;99.90;;;;;;5168683;23;20151;-92
2024/03/07 18:34:14;;;;;;;9.50;4.97;;;9.10;99.90;;;;;;5143349;23;20640;-93
2024/03/07 18:36:15;;;;;;;14.60;4.55;;;9.20;99.90;;;;;;5143431;23;20214;-92
2024/03/07 18:38:16;;;;;;;11.35;4.18;;;9.20;99.90;;;;;;5143310;23;20163;-92
2024/03/07 18:40:22;;;;;;;10.02;3.85;;;9.20;99.90;;;;;;5142754;23;20195;-92
2024/03/07 18:42:23;;;;;;;11.25;4.82;;;9.00;99.90;;;;;;5143753;23;20147;-95
2024/03/07 18:44:24;;;;;;;11.00;4.78;;;8.90;99.90;;;;;;5143521;23;20587;-92
2024/03/07 18:46:25;;;;;;;6.10;3.13;;;8.90;99.90;;;;;;5168676;23;20159;-94
2024/03/07 18:48:26;;;;;;;12.55;4.90;;;8.80;99.90;;;;;;5143576;23;20286;-92
2024/03/07 18:50:27;;;;;;;7.07;3.88;;;8.80;99.90;;;;;;5169989;23;20182;-94
2024/03/07 18:52:28;;;;;;;14.05;4.65;;;8.70;99.90;;;;;;5145717;23;20140;-93
2024/03/07 18:54:29;;;;;;;11.27;4.43;;;8.60;99.90;;;;;;5145651;23;20163;-91
2024/03/07 18:56:30;;;;;;;10.55;4.55;;;8.70;99.90;;;;;;5145185;23;20154;-94
2024/03/07 18:58:31;;;;;;;11.98;3.95;;;8.60;99.90;;;;;;5170112;22;20150;-94
2024/03/07 19:00:32;;;;;;;10.97;4.10;;;8.60;99.90;;;;;;5145245;23;20151;-94
2024/03/07 19:02:33;;;;;;;10.45;4.25;;;8.60;99.90;;;;;;5145393;23;20147;-93
2024/03/07 19:04:34;;;;;;;12.50;4.60;;;8.60;99.90;;;;;;5145216;23;20185;-91
2024/03/07 19:06:38;;;;;;;11.82;4.53;;;8.60;99.90;;;;;;5145247;23;20527;-92
2024/03/07 19:08:39;;;;;;;11.52;4.65;;;8.50;99.90;;;;;;5170118;23;20177;-94
2024/03/07 19:10:42;;;;;;;12.80;5.05;;;8.60;99.90;;;;;;5145344;23;20594;-92
2024/03/07 19:12:43;;;;;;;9.73;4.13;;;8.60;99.90;;;;;;5170609;23;20218;-91
2024/03/07 19:14:44;;;;;;;8.82;3.60;;;8.40;99.90;;;;;;5169944;23;20143;-94
2024/03/07 19:16:48;;;;;;;10.95;5.40;;;8.40;99.90;;;;;;5144755;23;20162;-91
2024/03/07 19:18:51;;;;;;;11.23;4.65;;;8.40;99.90;;;;;;5169902;23;20189;-95
2024/03/07 19:20:55;;;;;;;7.13;4.00;;;8.40;99.90;;;;;;5170376;23;20159;-94
2024/03/07 19:22:56;;;;;;;11.48;4.38;;;8.50;99.90;;;;;;5144872;23;20167;-92
2024/03/07 19:24:59;;;;;;;11.18;4.38;;;8.40;99.90;;;;;;5145336;23;20151;-95
2024/03/07 19:27:00;;;;;;;10.00;4.45;;;8.40;99.90;;;;;;5171891;23;20151;-93
2024/03/07 19:29:00;;;;;;;12.05;4.57;;;8.40;99.90;;;;;;5158535;23;20206;-93
2024/03/07 19:31:01;;;;;;;11.52;4.22;;;8.30;99.90;;;;;;5160843;23;20179;-96
2024/03/07 19:33:12;;;;;;;20.73;5.22;;;8.20;99.90;;;;;;5144744;23;20151;-93
2024/03/07 19:35:14;;;;;;;9.65;4.15;;;8.20;99.90;;;;;;5169880;23;20147;-93
2024/03/07 19:37:17;;;;;;;8.40;4.63;;;8.20;99.90;;;;;;5145198;23;20147;-94
2024/03/07 19:39:21;;;;;;;11.30;4.63;;;8.20;99.90;;;;;;5170270;22;20285;-95
2024/03/07 19:41:22;;;;;;;14.38;4.30;;;8.10;99.90;;;;;;5169817;23;20159;-94
2024/03/07 19:43:30;;;;;;;7.88;3.38;;;8.10;99.90;;;;;;5144420;23;20653;-93
2024/03/07 19:45:32;;;;;;;8.00;3.95;;;8.30;99.90;;;;;;5144589;23;20156;-93
2024/03/07 19:47:36;;;;;;;13.15;4.20;;;8.10;99.90;;;;;;5144399;23;20234;-92
2024/03/07 19:49:37;;;;;;;11.52;4.30;;;8.00;99.90;;;;;;5144575;23;20164;-92
2024/03/07 19:51:38;;;;;;;10.95;4.10;;;8.20;99.90;;;;;;5144868;23;20203;-91
2024/03/07 19:53:40;;;;;;;12.93;4.45;;;8.10;99.90;;;;;;5145273;23;20147;-94
2024/03/07 19:55:49;;;;;;;9.07;4.53;;;8.20;99.90;;;;;;5144521;23;20285;-94
2024/03/07 19:57:50;;;;;;;11.17;4.43;;;8.40;99.90;;;;;;5144512;23;20286;-95
2024/03/07 19:59:54;;;;;;;11.27;4.33;;;8.60;99.90;;;;;;5194572;22;20193;-96
2024/03/07 20:01:55;;;;;;;10.67;4.37;;;8.70;99.90;;;;;;5144228;23;20147;-94
2024/03/07 20:03:56;;;;;;;8.90;4.87;;;8.90;99.90;;;;;;5169075;23;20201;-95
2024/03/07 20:06:00;;;;;;;12.50;4.90;;;8.90;99.90;;;;;;5144355;23;20226;-95
2024/03/07 20:08:05;;;;;;;11.73;5.20;;;8.60;99.90;;;;;;5169258;23;20551;-95
2024/03/07 20:10:07;;;;;;;12.93;4.37;;;8.20;99.90;;;;;;5169492;23;20191;-95
2024/03/07 20:12:08;;;;;;;8.83;4.17;;;8.20;99.90;;;;;;5144266;23;20190;-92
2024/03/07 20:14:09;;;;;;;11.77;5.07;;;8.30;99.90;;;;;;5144367;23;20158;-94
2024/03/07 20:16:11;;;;;;;11.53;4.83;;;8.40;99.90;;;;;;5169276;22;20609;-95
2024/03/07 20:18:12;;;;;;;12.07;4.63;;;8.20;99.90;;;;;;5144132;23;20189;-94
2024/03/07 20:20:16;;;;;;;9.30;4.20;;;8.00;99.90;;;;;;5169109;23;20194;-92
2024/03/07 20:22:20;;;;;;;11.57;4.70;;;8.00;99.90;;;;;;5144278;23;20151;-92
2024/03/07 20:24:23;;;;;;;9.10;4.75;;;7.80;99.90;;;;;;5144955;23;20159;-93